Northsea Beta — 9HA2594 — position and weather

sailwx.info

Track history (hours):
 
Tides and Currents Weather Stations Pressure Air Temp Water Temp Dewpoint Dewpoint Depression Visibility Wind Speed Wind Dir Waves Ship Positions

Northsea Beta

Last reported at 2015-Apr-30 02:31 UTC. Time now 2015-May-03 10:51 UTC.
Position N 39°05' W 009°56'.

Length 110 m; draft 7.3 m.

Type: Ship (hazmat cat B). MMSI: 248970000.

Date/timePositionNaut miles runAvg speedWind from/ knotsBaromVisibWave heightAir tempDewpointWater temp
2015-Apr-30 02:31N 39°05' W 009°56'1210.4
2015-Apr-30 01:24N 38°54' W 009°57'910.3
2015-Apr-30 00:33N 38°45' W 009°57'1010.3
2015-Apr-29 23:33N 38°35' W 009°54'10 9.6
2015-Apr-29 22:33N 38°26' W 009°49'1010.1
2015-Apr-29 21:32N 38°21' W 009°38'10 9.6
2015-Apr-29 20:33N 38°15' W 009°29'1110.6
2015-Apr-29 19:33N 38°09' W 009°18'1110.7
2015-Apr-29 18:33N 38°02' W 009°07'1110.7
2015-Apr-29 17:33N 37°56' W 008°56'3 2.5
2015-Apr-29 16:28N 37°57' W 008°53'0 0.0
2015-Apr-29 15:31N 37°57' W 008°53'0 0.0
2015-Apr-29 14:31N 37°57' W 008°53'0 0.0
2015-Apr-29 13:31N 37°57' W 008°53'0 0.0
2015-Apr-29 12:31N 37°57' W 008°53'0 0.0
2015-Apr-29 11:31N 37°57' W 008°53'0 0.0
2015-Apr-29 10:31N 37°57' W 008°53'0 0.0
2015-Apr-29 09:31N 37°57' W 008°53'0 0.0
2015-Apr-29 08:31N 37°57' W 008°53'0 0.0
2015-Apr-29 07:31N 37°57' W 008°53'0 0.0
2015-Apr-29 06:31N 37°57' W 008°53'0 0.0
2015-Apr-29 05:31N 37°57' W 008°53'0 0.0
2015-Apr-29 04:31N 37°57' W 008°53'0 0.0
2015-Apr-29 03:31N 37°57' W 008°53'0 0.0
2015-Apr-29 02:31N 37°57' W 008°53'0 0.0
2015-Apr-29 01:31N 37°57' W 008°53'0 0.0
2015-Apr-29 00:31N 37°57' W 008°53'0 0.0
2015-Apr-28 23:31N 37°57' W 008°53'0 0.0
2015-Apr-28 22:31N 37°57' W 008°53'0 0.0
2015-Apr-28 21:31N 37°57' W 008°53'0 0.0
2015-Apr-28 20:31N 37°57' W 008°53'0 0.0
2015-Apr-28 19:31N 37°57' W 008°53'0 0.0
2015-Apr-28 18:31N 37°57' W 008°53'0 0.0
2015-Apr-28 17:31N 37°57' W 008°53'0 0.1
2015-Apr-28 16:33N 37°57' W 008°53'8 8.2
2015-Apr-28 15:33N 37°49' W 008°54'1010.2
2015-Apr-28 14:33N 37°39' W 008°59'60 6.6
2015-Apr-28 05:31N 36°45' W 008°29'  
2015-Apr-21 01:25N 38°40' W 010°11'1111.5
2015-Apr-21 00:28N 38°51' W 010°13'1111.4
2015-Apr-20 23:32N 39°01' W 010°14'  
Track history (hours):
 
Tides and Currents Weather Stations Pressure Air Temp Water Temp Dewpoint Dewpoint Depression Visibility Wind Speed Wind Dir Waves Ship Positions

Northsea Beta

Last reported at 2015-Apr-30 02:31 UTC. Time now 2015-May-03 10:51 UTC.
Position N 39°05' W 009°56'.

Length 110 m; draft 7.3 m.

Type: Ship (hazmat cat B). MMSI: 248970000.

Date/timePositionNaut miles runAvg speedWind from/ knotsBaromVisibWave heightAir tempDewpointWater temp
2015-Apr-30 02:31N 39°05' W 009°56'1210.4
2015-Apr-30 01:24N 38°54' W 009°57'910.3
2015-Apr-30 00:33N 38°45' W 009°57'1010.3
2015-Apr-29 23:33N 38°35' W 009°54'10 9.6
2015-Apr-29 22:33N 38°26' W 009°49'1010.1
2015-Apr-29 21:32N 38°21' W 009°38'10 9.6
2015-Apr-29 20:33N 38°15' W 009°29'1110.6
2015-Apr-29 19:33N 38°09' W 009°18'1110.7
2015-Apr-29 18:33N 38°02' W 009°07'1110.7
2015-Apr-29 17:33N 37°56' W 008°56'3 2.5
2015-Apr-29 16:28N 37°57' W 008°53'0 0.0
2015-Apr-29 15:31N 37°57' W 008°53'0 0.0
2015-Apr-29 14:31N 37°57' W 008°53'0 0.0
2015-Apr-29 13:31N 37°57' W 008°53'0 0.0
2015-Apr-29 12:31N 37°57' W 008°53'0 0.0
2015-Apr-29 11:31N 37°57' W 008°53'0 0.0
2015-Apr-29 10:31N 37°57' W 008°53'0 0.0
2015-Apr-29 09:31N 37°57' W 008°53'0 0.0
2015-Apr-29 08:31N 37°57' W 008°53'0 0.0
2015-Apr-29 07:31N 37°57' W 008°53'0 0.0
2015-Apr-29 06:31N 37°57' W 008°53'0 0.0
2015-Apr-29 05:31N 37°57' W 008°53'0 0.0
2015-Apr-29 04:31N 37°57' W 008°53'0 0.0
2015-Apr-29 03:31N 37°57' W 008°53'0 0.0
2015-Apr-29 02:31N 37°57' W 008°53'0 0.0
2015-Apr-29 01:31N 37°57' W 008°53'0 0.0
2015-Apr-29 00:31N 37°57' W 008°53'0 0.0
2015-Apr-28 23:31N 37°57' W 008°53'0 0.0
2015-Apr-28 22:31N 37°57' W 008°53'0 0.0
2015-Apr-28 21:31N 37°57' W 008°53'0 0.0
2015-Apr-28 20:31N 37°57' W 008°53'0 0.0
2015-Apr-28 19:31N 37°57' W 008°53'0 0.0
2015-Apr-28 18:31N 37°57' W 008°53'0 0.0
2015-Apr-28 17:31N 37°57' W 008°53'0 0.1
2015-Apr-28 16:33N 37°57' W 008°53'8 8.2
2015-Apr-28 15:33N 37°49' W 008°54'1010.2
2015-Apr-28 14:33N 37°39' W 008°59'60 6.6
2015-Apr-28 05:31N 36°45' W 008°29'  
2015-Apr-21 01:25N 38°40' W 010°11'1111.5
2015-Apr-21 00:28N 38°51' W 010°13'1111.4
2015-Apr-20 23:32N 39°01' W 010°14'  

Dump ship's entire track history